Time;durP1;ratioP1;P1;durP2;ratioP2;P2;SDS_P1;SDS_P2;PMS_P1;PMS_P2;Temp;Humidity;BMP_temperature;BMP_pressure;BME280_temperature;BME280_humidity;BME280_pressure;Samples;Min_cycle;Max_cycle;Signal;HPM_P1;HPM_P2
2023/01/23 00:03:07;;;;;;;58.30;36.80;;;;;;;3.97;100.00;101893.77;180329;1267;44118;-89
2023/01/23 00:07:11;;;;;;;60.40;32.90;;;;;;;3.95;100.00;101895.73;180646;1267;44220;-89
2023/01/23 00:11:18;;;;;;;44.40;30.20;;;;;;;3.95;100.00;101892.23;180443;1267;44073;-90
2023/01/23 00:15:22;;;;;;;49.50;32.80;;;;;;;3.92;100.00;101896.70;180247;1267;58281;-88
2023/01/23 00:19:25;;;;;;;50.30;31.10;;;;;;;3.90;100.00;101895.35;180468;1267;44003;-89
2023/01/23 00:23:28;;;;;;;48.20;29.30;;;;;;;3.87;100.00;101894.53;180257;1267;43839;-88
2023/01/23 00:27:32;;;;;;;59.70;35.00;;;;;;;3.85;100.00;101897.23;180501;1266;44451;-89
2023/01/23 00:31:37;;;;;;;70.20;35.10;;;;;;;3.81;100.00;101905.41;180559;1267;43895;-89
2023/01/23 00:35:41;;;;;;;53.60;33.10;;;;;;;3.78;100.00;101904.09;180326;1267;59702;-90
2023/01/23 00:39:44;;;;;;;58.50;38.40;;;;;;;3.75;100.00;101899.62;180575;1266;43907;-89
2023/01/23 00:43:50;;;;;;;57.40;33.40;;;;;;;3.71;100.00;101897.07;180453;1267;44080;-89
2023/01/23 00:47:53;;;;;;;54.50;34.80;;;;;;;3.67;100.00;101900.53;180366;1267;44253;-89
2023/01/23 00:51:57;;;;;;;52.40;32.60;;;;;;;3.60;100.00;101908.80;180442;1267;44257;-89
2023/01/23 00:56:00;;;;;;;50.60;32.90;;;;;;;3.55;100.00;101906.64;180671;1267;59922;-90
2023/01/23 01:00:04;;;;;;;56.50;34.90;;;;;;;3.53;100.00;101908.80;180396;1267;44755;-90
2023/01/23 01:04:07;;;;;;;47.90;30.40;;;;;;;3.52;100.00;101910.90;180649;1267;43775;-89
2023/01/23 01:08:11;;;;;;;48.80;30.10;;;;;;;3.52;100.00;101921.77;180628;1266;44299;-90
2023/01/23 01:12:14;;;;;;;48.80;27.70;;;;;;;3.49;100.00;101925.38;180451;1267;43718;-89
2023/01/23 01:16:18;;;;;;;55.90;32.90;;;;;;;3.47;100.00;101930.52;180418;1266;59638;-90
2023/01/23 01:20:24;;;;;;;52.20;34.60;;;;;;;3.43;100.00;101932.90;180732;1266;43982;-90
2023/01/23 01:24:28;;;;;;;62.80;33.70;;;;;;;3.41;100.00;101946.10;180542;1267;44061;-89
2023/01/23 01:28:33;;;;;;;64.30;35.80;;;;;;;3.39;100.00;101951.78;180421;1267;43921;-89
2023/01/23 01:32:37;;;;;;;47.00;30.30;;;;;;;3.39;100.00;101955.45;180361;1267;44086;-89
2023/01/23 01:36:40;;;;;;;58.10;32.40;;;;;;;3.41;100.00;101966.63;180216;1267;60654;-89
2023/01/23 01:40:43;;;;;;;56.60;32.40;;;;;;;3.41;100.00;101962.58;180354;1266;44667;-88
2023/01/23 01:44:52;;;;;;;52.80;30.80;;;;;;;3.39;100.00;101955.10;180529;1266;43845;-89
2023/01/23 01:49:14;;;;;;;53.20;29.50;;;;;;;3.39;100.00;101964.73;180516;1267;44054;-90
2023/01/23 01:53:20;;;;;;;56.70;30.20;;;;;;;3.36;100.00;101969.72;180426;1268;44066;-89
2023/01/23 01:57:34;;;;;;;55.30;32.40;;;;;;;3.34;100.00;101972.77;180497;1266;59629;-89
2023/01/23 02:01:39;;;;;;;61.80;31.00;;;;;;;3.36;100.00;101973.93;180484;1267;44065;-89
2023/01/23 02:05:44;;;;;;;53.00;33.60;;;;;;;3.37;100.00;101970.42;180331;1266;44176;-89
2023/01/23 02:09:48;;;;;;;50.10;30.20;;;;;;;3.38;100.00;101974.05;180400;1266;44008;-89
2023/01/23 02:13:54;;;;;;;55.00;32.30;;;;;;;3.35;100.00;101979.23;180474;1267;43962;-89
2023/01/23 02:17:57;;;;;;;67.30;35.00;;;;;;;3.34;100.00;101988.02;180359;1267;60231;-89
2023/01/23 02:22:46;;;;;;;56.90;33.00;;;;;;;3.38;100.00;101991.44;180478;1266;44056;-90
2023/01/23 02:26:49;;;;;;;54.70;30.90;;;;;;;3.38;100.00;101995.10;180564;1266;43817;-89
2023/01/23 02:30:53;;;;;;;50.70;27.90;;;;;;;3.37;100.00;102002.16;180334;1267;44053;-89
2023/01/23 02:34:59;;;;;;;50.90;31.30;;;;;;;3.38;100.00;102010.02;180385;1266;43759;-90
2023/01/23 02:39:06;;;;;;;44.20;31.50;;;;;;;3.34;100.00;102004.50;180349;1266;59403;-88
2023/01/23 02:43:13;;;;;;;53.10;33.00;;;;;;;3.32;100.00;102000.67;180548;1268;44132;-89
2023/01/23 02:47:17;;;;;;;50.50;32.60;;;;;;;3.32;100.00;102007.35;180404;1268;44248;-89
2023/01/23 02:51:21;;;;;;;62.60;33.60;;;;;;;3.32;100.00;102012.62;180337;1266;44145;-90
2023/01/23 02:55:29;;;;;;;67.20;34.10;;;;;;;3.31;100.00;102020.88;180421;1267;44087;-89
2023/01/23 03:00:33;;;;;;;55.70;34.00;;;;;;;3.33;100.00;102021.70;180570;1266;59668;-90
2023/01/23 03:04:05;;;;;;;58.20;34.50;;;;;;;3.33;100.00;102024.33;180385;1267;44025;-90
2023/01/23 03:08:08;;;;;;;55.00;33.20;;;;;;;3.32;100.00;102032.94;180558;1267;44441;-89
2023/01/23 03:12:11;;;;;;;50.80;31.90;;;;;;;3.33;100.00;102035.90;180426;1266;44001;-89
2023/01/23 03:16:15;;;;;;;61.70;34.10;;;;;;;3.30;100.00;102038.08;180515;1267;43963;-89
2023/01/23 03:20:19;;;;;;;56.60;37.20;;;;;;;3.31;100.00;102030.34;180525;1266;58276;-89
2023/01/23 03:24:22;;;;;;;69.80;37.10;;;;;;;3.30;100.00;102031.77;180345;1267;43868;-89
2023/01/23 03:32:50;;;;;;;68.50;35.60;;;;;;;3.28;100.00;102029.53;180391;1266;43749;-89
2023/01/23 03:36:53;;;;;;;60.70;35.60;;;;;;;3.29;100.00;102036.88;180470;1267;43816;-89
2023/01/23 03:45:18;;;;;;;53.30;30.40;;;;;;;3.37;100.00;102049.14;180490;1266;43774;-89
2023/01/23 03:49:22;;;;;;;55.60;35.80;;;;;;;3.37;100.00;102050.20;180255;1266;44190;-89
2023/01/23 03:53:25;;;;;;;52.10;36.20;;;;;;;3.39;100.00;102053.15;180531;1266;44315;-89
2023/01/23 03:57:28;;;;;;;57.00;31.10;;;;;;;3.41;100.00;102047.29;180487;1266;46148;-89
2023/01/23 04:01:33;;;;;;;63.90;31.70;;;;;;;3.44;100.00;102048.29;180206;1267;59406;-89
2023/01/23 04:05:37;;;;;;;58.10;34.20;;;;;;;3.43;100.00;102048.31;180193;1266;44094;-89
2023/01/23 04:09:40;;;;;;;67.40;33.20;;;;;;;3.39;100.00;102046.65;180499;1267;44121;-89
2023/01/23 04:13:45;;;;;;;57.20;32.60;;;;;;;3.38;100.00;102046.49;180228;1267;44219;-88
2023/01/23 04:17:48;;;;;;;54.50;32.60;;;;;;;3.38;100.00;102049.48;180322;1267;44137;-89
2023/01/23 04:21:52;;;;;;;58.00;31.50;;;;;;;3.38;100.00;102051.42;180469;1266;58346;-90
2023/01/23 04:25:56;;;;;;;63.00;32.00;;;;;;;3.39;100.00;102054.73;180546;1267;43848;-91
2023/01/23 04:30:00;;;;;;;55.30;33.50;;;;;;;3.42;100.00;102051.14;180724;1266;43729;-89
2023/01/23 04:34:03;;;;;;;53.00;32.20;;;;;;;3.44;100.00;102044.97;180556;1266;45020;-90
2023/01/23 04:38:07;;;;;;;76.20;36.40;;;;;;;3.46;100.00;102041.04;180508;1267;43951;-90
2023/01/23 04:42:11;;;;;;;63.20;34.10;;;;;;;3.41;100.00;102038.34;180473;1266;59699;-90
2023/01/23 04:46:14;;;;;;;92.40;64.10;;;;;;;3.38;100.00;102043.85;180642;1266;44029;-90
2023/01/23 04:50:18;;;;;;;63.60;34.30;;;;;;;3.34;100.00;102047.30;180534;1267;44282;-91
2023/01/23 04:54:22;;;;;;;80.60;39.30;;;;;;;3.26;100.00;102052.55;180628;1266;43976;-90
2023/01/23 04:58:26;;;;;;;67.40;37.00;;;;;;;3.20;100.00;102053.91;180572;1267;43856;-90
2023/01/23 05:02:29;;;;;;;65.60;31.40;;;;;;;3.16;100.00;102065.40;180607;1266;59251;-89
2023/01/23 05:06:33;;;;;;;61.00;38.50;;;;;;;3.18;100.00;102072.21;180443;1267;43962;-89
2023/01/23 05:10:37;;;;;;;64.70;36.10;;;;;;;3.19;100.00;102073.06;180627;1268;43747;-90
2023/01/23 05:14:40;;;;;;;62.80;38.60;;;;;;;3.17;100.00;102075.36;180378;1267;43897;-89
2023/01/23 05:18:44;;;;;;;54.60;35.50;;;;;;;3.17;100.00;102074.33;180595;1266;43836;-88
2023/01/23 05:22:53;;;;;;;65.60;33.60;;;;;;;3.15;100.00;102080.67;180383;1267;58532;-90
2023/01/23 05:26:57;;;;;;;65.50;35.70;;;;;;;3.12;100.00;102088.78;180469;1267;44091;-90
2023/01/23 05:31:00;;;;;;;68.90;39.90;;;;;;;3.11;100.00;102103.90;180353;1268;44010;-89
2023/01/23 05:35:04;;;;;;;79.90;40.80;;;;;;;3.12;100.00;102108.95;180552;1266;43983;-89
2023/01/23 05:39:08;;;;;;;85.50;38.00;;;;;;;3.16;100.00;102114.67;180666;1267;43797;-90
2023/01/23 05:43:14;;;;;;;57.70;35.50;;;;;;;3.19;100.00;102116.02;180595;1267;58272;-90
2023/01/23 05:47:17;;;;;;;70.30;35.60;;;;;;;3.20;100.00;102120.54;180613;1267;44122;-89
2023/01/23 05:51:22;;;;;;;57.00;35.50;;;;;;;3.19;100.00;102119.86;180190;1267;43958;-89
2023/01/23 05:55:25;;;;;;;61.20;33.20;;;;;;;3.19;100.00;102118.98;180546;1266;43730;-89
2023/01/23 05:59:29;;;;;;;63.00;36.20;;;;;;;3.15;100.00;102119.08;180353;1271;44102;-89
2023/01/23 06:03:32;;;;;;;56.20;35.40;;;;;;;3.18;100.00;102124.28;180406;1265;59246;-88
2023/01/23 06:07:36;;;;;;;74.60;38.80;;;;;;;3.20;100.00;102127.37;180505;1266;44126;-89
2023/01/23 06:11:39;;;;;;;56.10;33.20;;;;;;;3.27;100.00;102136.70;180525;1267;44016;-89
2023/01/23 06:15:43;;;;;;;60.90;33.70;;;;;;;3.31;100.00;102135.02;180164;1267;44374;-88
2023/01/23 06:19:47;;;;;;;51.70;35.60;;;;;;;3.31;100.00;102138.19;180308;1267;43815;-90
2023/01/23 06:23:50;;;;;;;59.30;34.90;;;;;;;3.32;100.00;102142.03;180259;1267;59486;-89
2023/01/23 06:27:54;;;;;;;64.90;35.30;;;;;;;3.31;100.00;102151.70;180408;1268;44160;-89
2023/01/23 06:31:57;;;;;;;66.20;33.50;;;;;;;3.32;100.00;102157.98;180208;1267;44207;-89
2023/01/23 06:36:04;;;;;;;60.00;33.30;;;;;;;3.37;100.00;102179.29;180407;1266;43818;-89
2023/01/23 06:40:11;;;;;;;66.20;37.50;;;;;;;3.38;100.00;102181.90;180538;1266;44046;-88
2023/01/23 06:44:15;;;;;;;63.40;35.40;;;;;;;3.37;100.00;102188.05;180514;1267;58836;-89
2023/01/23 06:48:19;;;;;;;53.80;31.40;;;;;;;3.37;100.00;102186.48;180438;1267;43728;-89
2023/01/23 06:52:22;;;;;;;65.10;35.90;;;;;;;3.33;100.00;102190.60;180434;1266;43816;-89
2023/01/23 06:56:26;;;;;;;69.60;34.10;;;;;;;3.28;100.00;102194.18;180409;1267;44072;-88
2023/01/23 07:00:30;;;;;;;65.00;35.40;;;;;;;3.28;100.00;102198.05;180415;1266;44115;-89
2023/01/23 07:04:33;;;;;;;63.60;36.10;;;;;;;3.30;100.00;102207.85;180283;1267;59710;-88
2023/01/23 07:08:37;;;;;;;62.40;36.60;;;;;;;3.29;100.00;102217.31;180326;1267;44002;-89
2023/01/23 07:12:40;;;;;;;62.10;36.40;;;;;;;3.27;100.00;102225.77;180284;1267;43867;-90
2023/01/23 07:16:43;;;;;;;74.30;37.00;;;;;;;3.29;100.00;102230.47;180323;1270;44222;-89
2023/01/23 07:20:48;;;;;;;56.50;34.40;;;;;;;3.31;100.00;102236.05;180268;1267;43836;-90
2023/01/23 07:24:52;;;;;;;60.90;36.20;;;;;;;3.33;100.00;102232.85;180260;1267;57255;-89
2023/01/23 07:28:55;;;;;;;96.70;34.10;;;;;;;3.33;100.00;102231.09;180179;1266;43931;-89
2023/01/23 07:32:58;;;;;;;62.90;34.10;;;;;;;3.35;100.00;102233.88;180078;1267;43837;-89
2023/01/23 07:37:02;;;;;;;58.40;34.90;;;;;;;3.39;100.00;102233.27;180360;1266;43740;-89
2023/01/23 07:41:05;;;;;;;60.70;31.10;;;;;;;3.44;100.00;102234.92;180161;1266;44138;-89
2023/01/23 07:45:09;;;;;;;73.60;39.80;;;;;;;3.46;100.00;102236.80;180168;1267;58040;-89
2023/01/23 07:49:13;;;;;;;104.00;57.60;;;;;;;3.48;100.00;102239.57;180339;1267;43850;-90
2023/01/23 07:53:16;;;;;;;111.30;53.40;;;;;;;3.53;100.00;102242.44;180278;1267;43761;-89
2023/01/23 07:57:19;;;;;;;77.00;41.60;;;;;;;3.60;100.00;102244.41;180390;1270;43939;-89
2023/01/23 08:01:22;;;;;;;69.90;37.10;;;;;;;3.64;100.00;102244.33;180517;1267;44169;-90
2023/01/23 08:05:26;;;;;;;67.00;34.50;;;;;;;3.64;100.00;102242.92;180530;1267;59628;-89
2023/01/23 08:09:29;;;;;;;61.10;34.70;;;;;;;3.66;100.00;102248.50;180412;1267;43905;-90
2023/01/23 08:13:32;;;;;;;64.70;32.50;;;;;;;3.71;100.00;102252.92;180097;1266;43864;-89
2023/01/23 08:17:36;;;;;;;63.50;35.50;;;;;;;3.77;100.00;102252.84;180570;1267;43824;-89
2023/01/23 08:21:39;;;;;;;68.20;41.00;;;;;;;3.76;100.00;102251.09;180445;1267;44141;-89
2023/01/23 08:25:42;;;;;;;73.10;39.60;;;;;;;3.73;100.00;102252.04;180255;1266;58362;-89
2023/01/23 08:29:46;;;;;;;79.40;42.30;;;;;;;3.69;100.00;102257.72;180225;1267;43933;-89
2023/01/23 08:33:49;;;;;;;68.80;36.40;;;;;;;3.67;100.00;102261.09;180326;1267;44242;-89
2023/01/23 08:37:52;;;;;;;72.60;37.20;;;;;;;3.64;100.00;102259.23;180480;1267;44023;-89
2023/01/23 08:41:55;;;;;;;79.60;45.40;;;;;;;3.54;100.00;102258.21;180412;1267;44068;-90
2023/01/23 08:45:59;;;;;;;91.80;53.30;;;;;;;3.49;100.00;102256.39;180511;1267;59248;-89
2023/01/23 08:50:04;;;;;;;78.60;44.40;;;;;;;3.49;100.00;102261.46;180317;1267;43925;-89
2023/01/23 08:54:07;;;;;;;79.30;42.20;;;;;;;3.48;100.00;102270.25;180464;1267;43831;-89
2023/01/23 08:58:11;;;;;;;76.30;41.50;;;;;;;3.49;100.00;102274.81;180408;1267;44129;-89
2023/01/23 09:02:15;;;;;;;73.00;39.70;;;;;;;3.53;100.00;102274.55;180619;1267;44186;-90
2023/01/23 09:06:20;;;;;;;77.80;40.10;;;;;;;3.59;100.00;102276.36;180338;1267;58375;-89
2023/01/23 09:10:24;;;;;;;61.80;38.00;;;;;;;3.67;100.00;102275.14;180488;1267;44075;-90
2023/01/23 09:14:27;;;;;;;71.10;41.60;;;;;;;3.74;100.00;102277.98;180379;1267;44070;-88
2023/01/23 09:18:30;;;;;;;67.30;38.80;;;;;;;3.80;100.00;102277.86;180481;1266;44071;-89
2023/01/23 09:22:34;;;;;;;56.70;33.70;;;;;;;3.79;100.00;102277.88;180326;1268;43940;-90
2023/01/23 09:26:37;;;;;;;68.40;40.10;;;;;;;3.82;100.00;102284.48;180474;1266;58063;-89
2023/01/23 09:30:41;;;;;;;63.00;34.30;;;;;;;3.87;100.00;102288.06;180364;1267;43719;-89
2023/01/23 09:34:47;;;;;;;73.80;39.80;;;;;;;3.93;100.00;102289.86;180415;1266;44084;-89
2023/01/23 09:38:50;;;;;;;;;;;;;;;3.99;100.00;102289.37;180478;1267;43734;-90
2023/01/23 09:42:57;;;;;;;50.90;30.70;;;;;;;4.02;100.00;102284.40;180623;1267;43794;-90
2023/01/23 09:47:12;;;;;;;68.60;36.20;;;;;;;4.03;100.00;102282.27;180313;1266;59426;-90
2023/01/23 09:51:27;;;;;;;72.30;35.30;;;;;;;4.05;100.00;102279.59;180488;1267;43940;-89
2023/01/23 09:55:48;;;;;;;71.20;41.20;;;;;;;4.09;100.00;102276.68;180389;1267;43734;-90
2023/01/23 09:59:58;;;;;;;62.20;37.10;;;;;;;4.13;100.00;102281.70;180583;1267;43803;-89
2023/01/23 10:04:04;;;;;;;77.50;38.30;;;;;;;4.21;100.00;102278.89;180402;1266;44162;-89
2023/01/23 10:08:32;;;;;;;70.50;43.00;;;;;;;4.26;100.00;102275.27;180354;1266;58351;-89
2023/01/23 10:12:48;;;;;;;73.70;44.00;;;;;;;4.31;100.00;102278.46;180399;1267;44037;-89
2023/01/23 10:17:21;;;;;;;74.80;39.00;;;;;;;4.33;100.00;102279.49;180484;1267;44356;-90
2023/01/23 10:21:34;;;;;;;85.50;42.60;;;;;;;4.33;100.00;102277.20;180558;1267;47750;-89
2023/01/23 10:25:39;;;;;;;67.60;37.00;;;;;;;4.34;100.00;102274.37;180476;1267;44274;-90
2023/01/23 10:29:48;;;;;;;70.30;39.00;;;;;;;4.35;100.00;102273.31;180337;1267;58353;-89
2023/01/23 10:33:57;;;;;;;69.20;35.10;;;;;;;4.34;100.00;102272.96;180449;1267;44030;-90
2023/01/23 10:38:24;;;;;;;77.70;41.50;;;;;;;4.31;100.00;102275.84;180453;1267;44091;-89
2023/01/23 10:42:28;;;;;;;73.90;36.30;;;;;;;4.33;100.00;102277.55;180395;1266;43984;-88
2023/01/23 10:46:47;;;;;;;69.20;37.10;;;;;;;4.35;100.00;102275.40;180455;1267;44096;-89
2023/01/23 10:50:50;;;;;;;74.50;39.10;;;;;;;4.37;100.00;102273.96;180401;1267;59565;-89
2023/01/23 10:54:54;;;;;;;56.30;32.90;;;;;;;4.40;100.00;102276.16;180052;1266;44057;-89
2023/01/23 10:59:00;;;;;;;61.60;34.10;;;;;;;4.40;100.00;102278.79;180303;1266;44235;-89
2023/01/23 11:03:18;;;;;;;;;;;;;;;4.32;100.00;102276.87;180410;1267;44171;-89
2023/01/23 11:07:31;;;;;;;72.90;38.80;;;;;;;4.27;100.00;102273.84;180426;1266;43805;-89
2023/01/23 11:11:35;;;;;;;64.80;36.70;;;;;;;4.30;100.00;102264.81;180399;1267;57990;-89
2023/01/23 11:15:41;;;;;;;64.00;39.30;;;;;;;4.33;100.00;102264.55;180408;1266;44320;-89
2023/01/23 11:19:47;;;;;;;68.20;36.40;;;;;;;4.31;100.00;102260.73;180390;1267;44036;-89
2023/01/23 11:24:17;;;;;;;56.40;35.10;;;;;;;4.26;100.00;102255.77;180303;1267;43755;-89
2023/01/23 11:28:46;;;;;;;80.10;42.30;;;;;;;4.18;100.00;102253.86;180336;1267;44098;-89
2023/01/23 11:33:00;;;;;;;75.70;41.10;;;;;;;4.12;100.00;102253.63;180195;1266;60002;-89
2023/01/23 11:37:16;;;;;;;84.80;46.40;;;;;;;4.03;100.00;102254.18;180446;1266;43757;-89
2023/01/23 11:41:27;;;;;;;65.80;37.20;;;;;;;3.99;100.00;102251.29;180386;1266;44021;-89
2023/01/23 11:45:42;;;;;;;75.50;41.90;;;;;;;3.97;100.00;102253.09;180328;1267;44136;-89
2023/01/23 11:50:04;;;;;;;74.60;44.10;;;;;;;4.01;100.00;102252.82;180306;1267;187585;-89
2023/01/23 11:54:28;;;;;;;81.40;44.20;;;;;;;4.02;100.00;102242.27;180555;1266;58304;-89
2023/01/23 11:59:11;;;;;;;81.50;41.40;;;;;;;4.07;100.00;102235.48;180209;1267;43995;-89
2023/01/23 12:03:33;;;;;;;87.30;39.80;;;;;;;4.07;100.00;102230.04;180332;1267;43973;-89
2023/01/23 12:07:42;;;;;;;71.30;38.60;;;;;;;4.08;100.00;102232.13;180541;1267;44947;-89
2023/01/23 12:12:09;;;;;;;77.70;42.30;;;;;;;4.07;100.00;102233.38;180507;1266;44166;-89
2023/01/23 12:16:25;;;;;;;71.00;40.10;;;;;;;4.08;100.00;102235.46;180544;1266;57883;-88
2023/01/23 12:20:36;;;;;;;64.90;38.20;;;;;;;4.10;100.00;102231.36;180454;1267;43887;-90
2023/01/23 12:25:16;;;;;;;70.30;42.40;;;;;;;4.18;100.00;102229.80;180502;1267;44175;-89
2023/01/23 12:29:38;;;;;;;67.40;41.40;;;;;;;4.22;100.00;102226.02;180556;1266;44267;-89
2023/01/23 12:33:59;;;;;;;74.80;41.10;;;;;;;4.23;100.00;102226.34;180407;1267;43794;-89
2023/01/23 12:38:23;;;;;;;69.90;36.90;;;;;;;4.20;100.00;102232.55;180342;1266;58315;-89
2023/01/23 12:42:40;;;;;;;65.50;37.70;;;;;;;4.19;100.00;102231.86;180339;1267;43875;-89
2023/01/23 12:46:55;;;;;;;64.90;36.20;;;;;;;4.19;100.00;102229.23;180610;1267;43862;-88
2023/01/23 12:51:11;;;;;;;71.60;37.60;;;;;;;4.14;100.00;102234.79;180348;1266;43801;-89
2023/01/23 12:55:18;;;;;;;78.50;37.90;;;;;;;4.14;100.00;102231.98;180371;1266;43748;-89
2023/01/23 12:59:46;;;;;;;71.90;40.40;;;;;;;4.14;100.00;102230.23;180548;1267;57959;-89
2023/01/23 13:03:55;;;;;;;85.60;44.60;;;;;;;4.16;100.00;102229.14;180314;1267;43944;-89
2023/01/23 13:08:12;;;;;;;71.80;41.50;;;;;;;4.19;100.00;102233.11;180629;1266;44025;-89
2023/01/23 13:12:24;;;;;;;73.20;38.90;;;;;;;4.15;100.00;102236.70;180329;1266;44091;-89
2023/01/23 13:16:30;;;;;;;67.10;44.20;;;;;;;4.09;100.00;102235.44;180070;1266;43760;-89
2023/01/23 13:25:11;;;;;;;76.90;42.70;;;;;;;4.08;100.00;102239.50;180550;1266;43620;-89
2023/01/23 13:29:48;;;;;;;67.20;38.00;;;;;;;4.08;100.00;102240.36;180399;1267;44011;-89
2023/01/23 13:33:53;;;;;;;63.10;36.60;;;;;;;4.08;100.00;102241.95;180317;1266;44169;-89
2023/01/23 13:38:41;;;;;;;64.20;32.90;;;;;;;4.05;100.00;102231.85;180403;1266;43734;-89
2023/01/23 13:42:44;;;;;;;66.20;41.00;;;;;;;4.03;100.00;102240.14;180323;1266;59780;-89
2023/01/23 13:46:50;;;;;;;68.90;36.90;;;;;;;4.03;100.00;102235.05;180456;1266;43743;-89
2023/01/23 13:51:19;;;;;;;76.80;41.10;;;;;;;3.99;100.00;102238.48;179470;1272;44035;-90
2023/01/23 14:00:22;;;;;;;70.80;40.80;;;;;;;3.96;100.00;102247.86;177575;1283;44172;-91
2023/01/23 14:09:26;;;;;;;72.00;40.20;;;;;;;4.01;100.00;102250.89;176713;1290;44359;-90
2023/01/23 14:18:46;;;;;;;66.80;41.50;;;;;;;4.00;100.00;102249.33;176138;1292;44213;-89
2023/01/23 14:23:15;;;;;;;77.90;43.50;;;;;;;4.05;100.00;102252.22;176069;1292;44212;-90
2023/01/23 14:32:13;;;;;;;69.00;34.60;;;;;;;4.02;100.00;102261.77;144151;1261;74264;-77
2023/01/23 15:24:35;;;;;;;84.10;44.50;;;;;;;3.73;100.00;102269.75;180681;1265;49297;-90
2023/01/23 15:28:47;;;;;;;78.80;43.30;;;;;;;3.69;100.00;102270.01;180456;1266;43923;-91
2023/01/23 15:32:51;;;;;;;81.30;47.20;;;;;;;3.67;100.00;102271.98;180570;1266;43882;-90
2023/01/23 15:37:13;;;;;;;86.60;46.90;;;;;;;3.66;100.00;102272.36;180573;1267;58465;-91
2023/01/23 15:41:17;;;;;;;94.00;49.90;;;;;;;3.60;100.00;102278.80;180719;1266;44222;-89
2023/01/23 15:59:23;;;;;;;83.50;48.70;;;;;;;3.49;100.00;102282.86;161696;1260;59282;-91
2023/01/23 16:03:26;;;;;;;110.90;58.90;;;;;;;3.48;100.00;102286.92;180709;1265;44180;-90
2023/01/23 16:26:28;;;;;;;118.20;59.30;;;;;;;3.40;100.00;102298.13;179462;1264;46385;-90
2023/01/23 16:30:33;;;;;;;117.70;61.50;;;;;;;3.41;100.00;102302.16;180891;1265;43938;-89
2023/01/23 17:07:49;;;;;;;98.20;54.20;;;;;;;3.39;100.00;102335.53;148032;1265;76180;-77
2023/01/23 17:11:55;;;;;;;96.50;51.50;;;;;;;3.36;100.00;102333.64;181060;1265;43806;-77
2023/01/23 17:15:59;;;;;;;102.90;53.90;;;;;;;3.35;100.00;102332.27;181113;1265;43046;-78
2023/01/23 17:20:30;;;;;;;114.30;61.30;;;;;;;3.34;100.00;102334.55;181061;1265;43130;-79
2023/01/23 17:24:33;;;;;;;107.00;62.00;;;;;;;3.32;100.00;102338.27;180315;1268;44335;-90
2023/01/23 17:33:30;;;;;;;118.70;56.70;;;;;;;3.31;100.00;102336.71;180779;1267;43943;-91
2023/01/23 17:51:32;;;;;;;98.90;53.90;;;;;;;3.28;100.00;102346.58;146646;1260;59218;-88
2023/01/23 17:55:39;;;;;;;101.30;57.40;;;;;;;3.27;100.00;102341.68;180729;1265;43946;-91
2023/01/23 18:14:38;;;;;;;104.60;60.40;;;;;;;3.27;100.00;102352.92;177855;1263;74074;-77
2023/01/23 18:18:42;;;;;;;100.80;56.80;;;;;;;3.28;100.00;102348.69;181054;1265;43134;-76
2023/01/23 18:22:47;;;;;;;92.40;54.60;;;;;;;3.27;100.00;102345.36;181069;1264;43921;-78
2023/01/23 18:27:22;;;;;;;97.90;51.50;;;;;;;3.24;100.00;102344.55;181050;1265;43995;-77
2023/01/23 18:36:20;;;;;;;104.60;55.30;;;;;;;3.22;100.00;102351.41;181163;1264;57871;-78
2023/01/23 18:40:28;;;;;;;103.50;52.20;;;;;;;3.21;100.00;102350.39;181152;1265;43855;-79
2023/01/23 18:44:33;;;;;;;98.90;55.10;;;;;;;3.20;100.00;102349.19;181061;1264;43656;-78
2023/01/23 18:48:39;;;;;;;104.30;62.50;;;;;;;3.19;100.00;102350.62;181151;1264;43149;-79
2023/01/23 18:57:50;;;;;;;93.10;53.40;;;;;;;3.19;100.00;102353.59;180608;1270;57938;-78
2023/01/23 19:07:18;;;;;;;98.50;53.80;;;;;;;3.27;100.00;102354.84;180771;1270;43963;-79
2023/01/23 19:11:51;;;;;;;97.60;51.20;;;;;;;3.27;100.00;102360.80;180603;1270;43183;-79
2023/01/23 19:16:05;;;;;;;94.90;47.40;;;;;;;3.27;100.00;102364.30;180900;1265;43748;-78
2023/01/23 19:20:34;;;;;;;83.20;47.80;;;;;;;3.27;100.00;102362.04;181128;1264;57903;-79
2023/01/23 19:24:37;;;;;;;81.50;45.70;;;;;;;3.24;100.00;102363.33;181052;1265;43946;-79
2023/01/23 19:28:41;;;;;;;93.10;50.20;;;;;;;3.25;100.00;102362.23;181055;1264;43675;-79
2023/01/23 19:32:46;;;;;;;102.90;51.30;;;;;;;3.30;100.00;102357.95;181059;1264;44281;-76
2023/01/23 19:36:49;;;;;;;100.20;47.30;;;;;;;3.33;100.00;102354.23;181079;1264;43789;-75
2023/01/23 19:40:53;;;;;;;74.30;47.70;;;;;;;3.36;100.00;102355.05;181017;1264;59498;-79
2023/01/23 19:44:57;;;;;;;90.60;50.30;;;;;;;3.38;100.00;102351.86;181026;1265;43113;-79
2023/01/23 19:49:02;;;;;;;93.40;50.10;;;;;;;3.37;100.00;102351.36;181077;1264;43090;-75
2023/01/23 19:53:05;;;;;;;93.80;54.20;;;;;;;3.38;100.00;102350.11;181006;1265;43540;-77
2023/01/23 19:57:08;;;;;;;82.70;49.00;;;;;;;3.36;100.00;102352.92;181131;1264;43075;-79
2023/01/23 20:01:32;;;;;;;84.10;49.70;;;;;;;3.38;100.00;102356.25;181119;1264;57899;-80
2023/01/23 20:05:35;;;;;;;92.40;52.20;;;;;;;3.40;100.00;102357.79;181064;1265;43140;-79
2023/01/23 20:09:38;;;;;;;96.10;52.60;;;;;;;3.40;100.00;102354.95;181089;1264;44128;-80
2023/01/23 20:13:41;;;;;;;101.20;54.60;;;;;;;3.41;100.00;102355.66;181070;1265;43064;-80
2023/01/23 20:17:45;;;;;;;89.90;47.10;;;;;;;3.41;100.00;102354.77;181061;1265;43015;-79
2023/01/23 20:21:54;;;;;;;92.70;52.80;;;;;;;3.40;100.00;102355.49;181081;1265;57955;-79
2023/01/23 20:25:59;;;;;;;117.10;63.70;;;;;;;3.40;100.00;102353.20;181045;1265;43197;-79
2023/01/23 20:30:06;;;;;;;112.00;71.50;;;;;;;3.41;100.00;102357.05;181183;1265;43730;-77
2023/01/23 20:34:09;;;;;;;106.10;57.00;;;;;;;3.39;100.00;102356.75;181109;1264;43862;-79
2023/01/23 20:38:12;;;;;;;94.50;52.60;;;;;;;3.37;100.00;102362.39;181099;1265;43044;-78
2023/01/23 20:43:15;;;;;;;95.50;57.70;;;;;;;3.38;100.00;102362.91;181173;1265;58520;-79
2023/01/23 20:47:18;;;;;;;98.10;51.30;;;;;;;3.37;100.00;102362.91;181092;1264;43066;-79
2023/01/23 20:51:26;;;;;;;117.90;67.70;;;;;;;3.38;100.00;102364.13;181146;1265;43100;-78
2023/01/23 20:55:29;;;;;;;102.30;57.20;;;;;;;3.38;100.00;102357.64;181083;1268;43139;-79
2023/01/23 20:59:32;;;;;;;97.50;53.70;;;;;;;3.38;100.00;102362.02;181190;1265;43417;-77
2023/01/23 21:03:35;;;;;;;100.40;50.70;;;;;;;3.39;100.00;102359.56;181055;1264;57917;-78
2023/01/23 21:07:40;;;;;;;107.40;53.30;;;;;;;3.40;100.00;102359.36;181107;1264;43145;-79
2023/01/23 21:12:14;;;;;;;94.90;54.10;;;;;;;3.40;100.00;102359.71;181175;1264;43100;-76
2023/01/23 21:16:17;;;;;;;117.50;62.00;;;;;;;3.39;100.00;102360.60;181186;1265;43517;-76
2023/01/23 21:20:25;;;;;;;83.60;46.50;;;;;;;3.37;100.00;102358.53;181101;1265;43181;-78
2023/01/23 21:24:33;;;;;;;89.50;47.10;;;;;;;3.40;100.00;102356.02;181200;1264;58362;-77
2023/01/23 21:29:28;;;;;;;91.30;48.70;;;;;;;3.41;100.00;102359.52;181120;1265;43092;-78
2023/01/23 21:33:31;;;;;;;90.00;49.30;;;;;;;3.40;100.00;102359.51;181210;1264;43006;-76
2023/01/23 21:37:42;;;;;;;80.80;49.00;;;;;;;3.41;100.00;102355.98;181181;1265;43431;-76
2023/01/23 21:41:45;;;;;;;94.80;47.30;;;;;;;3.42;100.00;102353.69;181139;1265;43048;-76
2023/01/23 21:45:48;;;;;;;99.20;50.20;;;;;;;3.44;100.00;102356.83;181117;1265;58206;-77
2023/01/23 21:49:51;;;;;;;90.50;51.30;;;;;;;3.43;100.00;102355.26;181126;1266;43404;-77
2023/01/23 21:53:54;;;;;;;111.10;62.20;;;;;;;3.42;100.00;102352.64;181114;1265;43484;-78